I19

Greene County-Lewis A Jackson Regional Airport

Dayton, Ohio, USA
METAR KI19 251635Z AUTO 23010G14KT 10SM OVC009 22/20 A3007 RMK AO2 T02220204
Observed Flight Rules
Sep-25 @ 16:35 UTC (29 minutes ago) Instrument Flight Rules
Wind Visibility Clouds
230° at 10 knots
 Gusting to 14 knots
10 miles
  • Overcast at 900' AGL
Temperatures Readings
Current 22°C / 72°F
Dewpoint 20°C / 68°F
Humidity 88%
Altimeter 30.07" Hg
Pressure 1018 hPa
Elevation 289
METAR KI19 251635Z AUTO 23010G14KT 10SM OVC009 22/20 A3007 RMK AO2 T02220204
Observed Flight Rules
Sep-25 @ 16:35 UTC
(29 minutes ago)
IFR
Wind Visibility
230° at 10 knots
 Gusting to 14 knots
10 miles
Clouds
  • Overcast at 900' AGL
Temperature Dewpoint
22°C / 72°F 20°C / 68°F
Humidity Altimeter Pressure
88% 30.07" Hg 1018 hPa